createdAt,value
2018-09-27T00:00:33.093Z,10.10
2018-09-27T00:03:00.353Z,10.20
2018-09-27T00:05:27.815Z,9.85
2018-09-27T00:07:55.085Z,9.77
2018-09-27T00:10:22.563Z,9.77
2018-09-27T00:12:49.969Z,9.67
2018-09-27T00:15:17.431Z,9.56
2018-09-27T00:17:44.824Z,9.45
2018-09-27T00:20:12.123Z,9.51
2018-09-27T00:22:39.430Z,9.45
2018-09-27T00:25:06.935Z,9.52
2018-09-27T00:27:34.374Z,9.61
2018-09-27T00:30:01.626Z,9.61
2018-09-27T00:32:28.911Z,9.65
2018-09-27T00:34:56.293Z,9.56
2018-09-27T00:37:23.834Z,9.44
2018-09-27T00:39:51.343Z,9.56
2018-09-27T00:42:18.862Z,9.48
2018-09-27T00:44:46.071Z,9.52
2018-09-27T00:47:13.467Z,9.35
2018-09-27T00:49:40.820Z,9.41
2018-09-27T00:52:08.053Z,9.39
2018-09-27T00:54:35.468Z,9.25
2018-09-27T00:57:03.034Z,9.25
2018-09-27T00:59:30.497Z,9.33
2018-09-27T01:01:57.738Z,9.33
2018-09-27T01:04:25.165Z,9.34
2018-09-27T01:06:52.617Z,9.18
2018-09-27T01:09:20.005Z,9.14
2018-09-27T01:11:47.508Z,9.26
2018-09-27T01:14:14.862Z,9.40
2018-09-27T01:16:42.229Z,9.44
2018-09-27T01:19:09.569Z,9.37
2018-09-27T01:21:36.882Z,9.04
2018-09-27T01:24:04.343Z,9.03
2018-09-27T01:26:31.737Z,9.10
2018-09-27T01:28:58.981Z,9.04
2018-09-27T01:31:26.288Z,9.02
2018-09-27T01:33:53.501Z,8.97
2018-09-27T01:36:20.705Z,8.94
2018-09-27T01:38:48.363Z,8.78
2018-09-27T01:41:15.781Z,8.84
2018-09-27T01:43:43.492Z,8.83
2018-09-27T01:46:12.420Z,8.77
2018-09-27T01:48:41.620Z,8.77
2018-09-27T01:51:11.060Z,8.66
2018-09-27T01:53:39.433Z,8.67
2018-09-27T01:56:07.557Z,8.74
2018-09-27T01:58:35.185Z,8.86
2018-09-27T02:01:02.658Z,8.87
2018-09-27T02:03:30.093Z,8.77
2018-09-27T02:05:57.649Z,8.79
2018-09-27T02:08:25.501Z,9.00
2018-09-27T02:10:52.802Z,8.96
2018-09-27T02:13:20.218Z,8.78
2018-09-27T02:15:48.255Z,8.74
2018-09-27T02:18:15.907Z,8.73
2018-09-27T02:20:45.483Z,8.69
2018-09-27T02:23:14.580Z,8.66
2018-09-27T02:25:42.665Z,8.72
2018-09-27T02:28:10.506Z,8.72
2018-09-27T02:30:37.942Z,8.64
2018-09-27T02:33:05.414Z,8.73
2018-09-27T02:35:32.922Z,8.72
2018-09-27T02:38:00.298Z,8.31
2018-09-27T02:40:27.608Z,8.18
2018-09-27T02:42:54.976Z,8.12
2018-09-27T02:45:22.485Z,8.18
2018-09-27T02:47:49.943Z,8.28
2018-09-27T02:50:17.262Z,8.16
2018-09-27T02:52:44.525Z,8.24
2018-09-27T02:55:11.846Z,7.96
2018-09-27T02:57:39.185Z,7.83
2018-09-27T03:00:06.471Z,7.75
2018-09-27T03:02:33.823Z,7.80
2018-09-27T03:05:01.284Z,7.85
2018-09-27T03:07:28.815Z,7.87
2018-09-27T03:09:56.136Z,7.75
2018-09-27T03:12:23.480Z,7.87
2018-09-27T03:14:50.741Z,7.94
2018-09-27T03:17:18.009Z,7.76
2018-09-27T03:19:45.656Z,7.95
2018-09-27T03:22:13.004Z,8.17
2018-09-27T03:24:40.270Z,8.19
2018-09-27T03:27:07.506Z,8.11
2018-09-27T03:29:34.841Z,8.02
2018-09-27T03:32:02.194Z,7.94
2018-09-27T03:34:29.548Z,7.89
2018-09-27T03:36:56.762Z,7.94
2018-09-27T03:39:24.140Z,8.00
2018-09-27T03:41:51.409Z,7.95
2018-09-27T03:44:18.878Z,7.95
2018-09-27T03:46:46.130Z,8.04
2018-09-27T03:49:13.819Z,8.04
2018-09-27T03:51:41.038Z,8.04
2018-09-27T03:54:08.303Z,8.12
2018-09-27T03:56:35.540Z,8.13
2018-09-27T03:59:03.166Z,8.03
2018-09-27T04:01:30.498Z,7.87
2018-09-27T04:03:57.720Z,8.22
2018-09-27T04:06:25.157Z,8.20
2018-09-27T04:08:52.336Z,8.16
2018-09-27T04:11:19.734Z,8.14
2018-09-27T04:13:47.662Z,8.17
2018-09-27T04:16:15.163Z,8.06
2018-09-27T04:18:42.516Z,8.05
2018-09-27T04:21:09.682Z,8.04
2018-09-27T04:23:36.917Z,8.08
2018-09-27T04:26:04.559Z,8.12
2018-09-27T04:28:31.707Z,8.11
2018-09-27T04:30:58.941Z,8.09
2018-09-27T04:33:26.312Z,7.48
2018-09-27T04:35:53.571Z,7.00
2018-09-27T04:38:20.783Z,7.74
2018-09-27T04:40:48.244Z,7.70
2018-09-27T04:43:15.514Z,7.60
2018-09-27T04:45:42.904Z,7.50
2018-09-27T04:48:10.684Z,7.52
2018-09-27T04:50:38.055Z,7.49
2018-09-27T04:53:05.394Z,7.52
2018-09-27T04:55:32.578Z,7.58
2018-09-27T04:57:59.813Z,7.57
2018-09-27T05:00:26.966Z,7.67
2018-09-27T05:02:54.158Z,7.58
2018-09-27T05:05:21.390Z,5.78
2018-09-27T05:07:48.614Z,7.29
2018-09-27T05:10:16.023Z,7.34
2018-09-27T05:12:43.243Z,7.47
2018-09-27T05:15:11.207Z,7.60
2018-09-27T05:17:38.390Z,7.56
2018-09-27T05:20:08.707Z,7.61
2018-09-27T05:22:36.338Z,7.62
2018-09-27T05:25:04.220Z,7.62
2018-09-27T05:27:31.691Z,7.62
2018-09-27T05:29:58.977Z,7.63
2018-09-27T05:32:26.521Z,7.63
2018-09-27T05:34:53.817Z,7.44
2018-09-27T05:37:21.117Z,7.44
2018-09-27T05:39:48.581Z,7.35
2018-09-27T05:42:15.865Z,7.46
2018-09-27T05:44:43.190Z,7.50
2018-09-27T05:47:10.437Z,7.48
2018-09-27T05:49:37.721Z,7.46
2018-09-27T05:52:04.930Z,7.42
2018-09-27T05:54:32.185Z,7.35
2018-09-27T05:56:59.389Z,7.38
2018-09-27T05:59:26.710Z,7.50
2018-09-27T06:01:53.915Z,7.06
2018-09-27T06:04:21.172Z,7.54
2018-09-27T06:06:48.529Z,7.66
2018-09-27T06:09:15.857Z,7.63
2018-09-27T06:11:42.983Z,7.20
2018-09-27T06:14:10.202Z,7.63
2018-09-27T06:16:38.319Z,7.78
2018-09-27T06:19:05.835Z,7.82
2018-09-27T06:21:33.101Z,7.84
2018-09-27T06:24:00.474Z,7.86
2018-09-27T06:26:28.190Z,8.01
2018-09-27T06:28:55.484Z,7.97
2018-09-27T06:31:22.648Z,7.93
2018-09-27T06:33:49.821Z,7.95
2018-09-27T06:36:17.142Z,7.96
2018-09-27T06:38:44.740Z,7.96
2018-09-27T06:41:11.882Z,8.03
2018-09-27T06:43:39.145Z,8.07
2018-09-27T06:46:09.128Z,8.08
2018-09-27T06:48:37.510Z,8.21
2018-09-27T06:51:04.847Z,8.24
2018-09-27T06:53:32.067Z,8.32
2018-09-27T06:55:59.603Z,8.38
2018-09-27T06:58:27.874Z,8.50
2018-09-27T07:00:55.574Z,8.62
2018-09-27T07:03:22.755Z,8.73
2018-09-27T07:05:49.898Z,8.92
2018-09-27T07:08:17.295Z,8.92
2018-09-27T07:10:44.517Z,8.91
2018-09-27T07:13:11.743Z,9.03
2018-09-27T07:15:38.961Z,9.08
2018-09-27T07:18:06.112Z,9.37
2018-09-27T07:20:33.350Z,9.45
2018-09-27T07:23:00.555Z,9.40
2018-09-27T07:25:27.851Z,9.54
2018-09-27T07:27:55.263Z,9.67
2018-09-27T07:30:22.437Z,9.80
2018-09-27T07:32:49.591Z,9.89
2018-09-27T07:35:16.761Z,9.99
2018-09-27T07:37:43.960Z,10.05
2018-09-27T07:40:11.114Z,10.09
2018-09-27T07:42:38.902Z,10.31
2018-09-27T07:45:06.363Z,10.45
2018-09-27T07:47:33.951Z,10.51
2018-09-27T07:50:01.423Z,10.62
2018-09-27T07:52:28.646Z,10.80
2018-09-27T07:54:55.909Z,10.99
2018-09-27T07:57:23.176Z,11.11
2018-09-27T07:59:51.703Z,11.19
2018-09-27T08:02:19.043Z,11.26
2018-09-27T08:04:46.355Z,11.45
2018-09-27T08:07:13.550Z,11.55
2018-09-27T08:09:41.086Z,11.70
2018-09-27T08:12:08.586Z,11.79
2018-09-27T08:14:35.951Z,11.90
2018-09-27T08:17:03.119Z,12.01
2018-09-27T08:19:30.296Z,12.14
2018-09-27T08:21:57.643Z,12.32
2018-09-27T08:24:24.997Z,12.50
2018-09-27T08:26:52.333Z,12.59
2018-09-27T08:29:19.707Z,12.71
2018-09-27T08:31:47.001Z,12.80
2018-09-27T08:34:14.251Z,12.88
2018-09-27T08:36:41.393Z,12.98
2018-09-27T08:39:10.406Z,13.10
2018-09-27T08:41:38.101Z,13.29
2018-09-27T08:44:05.609Z,13.38
2018-09-27T08:46:32.881Z,13.44
2018-09-27T08:49:00.986Z,13.55
2018-09-27T08:51:28.999Z,13.73
2018-09-27T08:53:56.116Z,13.80
2018-09-27T08:56:23.329Z,13.88
2018-09-27T08:58:50.632Z,14.03
2018-09-27T09:01:17.885Z,14.12
2018-09-27T09:03:45.332Z,14.21
2018-09-27T09:06:12.622Z,14.34
2018-09-27T09:08:39.851Z,14.51
2018-09-27T09:11:07.097Z,14.63
2018-09-27T09:13:34.501Z,14.73
2018-09-27T09:16:01.862Z,14.85
2018-09-27T09:18:29.110Z,14.99
2018-09-27T09:20:56.790Z,15.11
2018-09-27T09:23:23.918Z,15.26
2018-09-27T09:25:51.196Z,15.37
2018-09-27T09:28:18.522Z,15.42
2018-09-27T09:30:45.843Z,15.50
2018-09-27T09:33:13.154Z,15.62
2018-09-27T09:35:40.511Z,15.74
2018-09-27T09:38:07.796Z,15.80
2018-09-27T09:40:35.092Z,15.91
2018-09-27T09:43:02.245Z,15.98
2018-09-27T09:45:29.485Z,16.11
2018-09-27T09:47:57.321Z,16.25
2018-09-27T09:50:24.676Z,16.36
2018-09-27T09:52:51.948Z,16.48
2018-09-27T09:55:19.186Z,16.58
2018-09-27T09:57:46.413Z,16.50
2018-09-27T10:00:13.831Z,16.80
2018-09-27T10:02:41.061Z,16.87
2018-09-27T10:05:08.475Z,16.99
2018-09-27T10:07:35.950Z,17.03
2018-09-27T10:10:03.265Z,17.15
2018-09-27T10:12:30.538Z,17.13
2018-09-27T10:14:57.947Z,17.42
2018-09-27T10:17:31.925Z,17.53
2018-09-27T10:19:59.297Z,17.60
2018-09-27T10:22:26.530Z,17.72
2018-09-27T10:24:54.140Z,17.82
2018-09-27T10:27:21.820Z,17.96
2018-09-27T10:29:49.037Z,18.04
2018-09-27T10:32:16.258Z,18.16
2018-09-27T10:34:44.000Z,18.21
2018-09-27T10:37:11.150Z,18.35
2018-09-27T10:39:38.436Z,18.51
2018-09-27T10:42:05.675Z,18.64
2018-09-27T10:44:32.950Z,18.76
2018-09-27T10:47:00.390Z,18.91
2018-09-27T10:49:27.873Z,19.02
2018-09-27T10:51:57.101Z,19.12
2018-09-27T10:54:24.476Z,19.21
2018-09-27T10:56:51.854Z,19.31
2018-09-27T10:59:19.304Z,19.39
2018-09-27T11:01:46.538Z,19.51
2018-09-27T11:04:13.945Z,19.63
2018-09-27T11:06:41.361Z,19.75
2018-09-27T11:09:09.372Z,19.82
2018-09-27T11:11:36.981Z,19.95
2018-09-27T11:14:04.984Z,20.07
2018-09-27T11:16:32.694Z,20.18
2018-09-27T11:18:59.886Z,20.27
2018-09-27T11:21:27.122Z,20.38
2018-09-27T11:23:54.379Z,20.46
2018-09-27T11:26:21.732Z,20.59
2018-09-27T11:28:54.521Z,20.66
2018-09-27T11:31:27.807Z,20.78
2018-09-27T11:33:55.059Z,20.86
2018-09-27T11:36:22.459Z,20.94
2018-09-27T11:38:49.977Z,21.06
2018-09-27T11:41:17.858Z,21.14
2018-09-27T11:43:45.282Z,21.26
2018-09-27T11:46:12.773Z,21.35
2018-09-27T11:48:40.039Z,21.38
2018-09-27T11:51:08.397Z,21.46
2018-09-27T11:53:36.838Z,21.56
2018-09-27T11:56:04.248Z,21.59
2018-09-27T11:58:31.605Z,21.65
2018-09-27T12:00:59.069Z,21.82
2018-09-27T12:03:26.374Z,22.02
2018-09-27T12:05:53.664Z,22.11
2018-09-27T12:08:20.980Z,22.19
2018-09-27T12:10:49.445Z,22.13
2018-09-27T12:13:16.827Z,22.29
2018-09-27T12:15:44.317Z,22.34
2018-09-27T12:18:11.763Z,22.48
2018-09-27T12:20:39.071Z,22.70
2018-09-27T12:23:06.444Z,22.90
2018-09-27T12:25:33.775Z,23.11
2018-09-27T12:28:01.061Z,23.20
2018-09-27T12:30:28.367Z,23.20
2018-09-27T12:32:56.610Z,23.33
2018-09-27T12:35:23.825Z,23.46
2018-09-27T12:37:51.211Z,23.59
2018-09-27T12:40:19.177Z,23.87
2018-09-27T12:42:46.600Z,24.08
2018-09-27T12:45:13.842Z,24.14
2018-09-27T12:47:41.027Z,23.66
2018-09-27T12:50:08.251Z,24.40
2018-09-27T12:52:35.579Z,24.57
2018-09-27T12:55:03.101Z,24.72
2018-09-27T12:57:30.462Z,24.96
2018-09-27T12:59:57.783Z,25.00
2018-09-27T13:02:25.097Z,25.04
2018-09-27T13:04:52.469Z,25.09
2018-09-27T13:07:20.603Z,25.14
2018-09-27T13:09:47.882Z,25.25
2018-09-27T13:12:15.664Z,25.17
2018-09-27T13:14:42.996Z,25.46
2018-09-27T13:17:10.155Z,25.68
2018-09-27T13:19:37.600Z,25.82
2018-09-27T13:22:04.716Z,25.91
2018-09-27T13:24:31.959Z,26.09
2018-09-27T13:26:59.385Z,26.13
2018-09-27T13:29:27.501Z,26.28
2018-09-27T13:31:54.791Z,25.95
2018-09-27T13:34:22.043Z,26.17
2018-09-27T13:36:49.348Z,26.23
2018-09-27T13:39:16.687Z,26.25
2018-09-27T13:41:43.897Z,26.23
2018-09-27T13:44:11.210Z,26.20
2018-09-27T13:46:38.458Z,26.29
2018-09-27T13:49:05.871Z,26.41
2018-09-27T13:51:33.171Z,26.53
2018-09-27T13:54:00.804Z,26.66
2018-09-27T13:56:28.363Z,26.62
2018-09-27T13:58:56.274Z,26.70
2018-09-27T14:01:23.727Z,26.26
2018-09-27T14:03:50.969Z,26.84
2018-09-27T14:06:18.306Z,27.09
2018-09-27T14:08:45.500Z,27.33
2018-09-27T14:11:12.739Z,27.37
2018-09-27T14:13:40.050Z,27.36
2018-09-27T14:16:08.151Z,27.57
2018-09-27T14:18:35.408Z,27.80
2018-09-27T14:21:02.678Z,28.11
2018-09-27T14:23:30.905Z,28.19
2018-09-27T14:25:58.539Z,28.42
2018-09-27T14:28:25.825Z,28.49
2018-09-27T14:30:53.151Z,28.70
2018-09-27T14:33:20.427Z,28.56
2018-09-27T14:35:48.367Z,28.66
2018-09-27T14:38:15.752Z,28.76
2018-09-27T14:40:42.971Z,28.94
2018-09-27T14:43:10.258Z,28.97
2018-09-27T14:45:37.507Z,28.86
2018-09-27T14:48:04.848Z,28.94
2018-09-27T14:50:32.110Z,28.88
2018-09-27T14:52:59.854Z,29.03
2018-09-27T14:55:27.129Z,28.95
2018-09-27T14:57:54.511Z,29.02
2018-09-27T15:00:21.969Z,29.10
2018-09-27T15:02:49.929Z,29.23
2018-09-27T15:05:17.312Z,29.19
2018-09-27T15:07:45.532Z,29.33
2018-09-27T15:10:13.183Z,29.62
2018-09-27T15:12:40.871Z,29.56
2018-09-27T15:15:08.338Z,29.65
2018-09-27T15:17:35.942Z,29.66
2018-09-27T15:20:03.349Z,29.43
2018-09-27T15:22:30.957Z,29.55
2018-09-27T15:24:58.251Z,28.85
2018-09-27T15:27:25.442Z,28.27
2018-09-27T15:29:52.740Z,27.67
2018-09-27T15:32:19.991Z,27.23
2018-09-27T15:34:49.356Z,26.88
2018-09-27T15:37:19.608Z,26.60
2018-09-27T15:39:57.538Z,26.30
2018-09-27T15:44:19.967Z,26.10
2018-09-27T15:46:51.051Z,25.49
2018-09-27T15:49:18.911Z,25.37
2018-09-27T15:51:59.131Z,25.23
2018-09-27T15:54:28.324Z,25.08
2018-09-27T15:56:57.362Z,25.06
2018-09-27T15:59:29.130Z,24.98
2018-09-27T16:02:04.163Z,24.96
2018-09-27T16:04:32.664Z,24.88
2018-09-27T16:07:00.474Z,24.77
2018-09-27T16:09:43.294Z,24.74
2018-09-27T16:12:11.107Z,24.65
2018-09-27T16:14:39.327Z,24.59
2018-09-27T16:17:06.663Z,24.50
2018-09-27T16:19:34.312Z,24.44
2018-09-27T16:22:03.820Z,24.35
2018-09-27T16:24:31.050Z,24.35
2018-09-27T16:26:58.438Z,24.23
2018-09-27T16:29:26.200Z,24.19
2018-09-27T16:31:53.627Z,24.20
2018-09-27T16:34:20.840Z,24.10
2018-09-27T16:36:48.076Z,24.00
2018-09-27T16:39:15.295Z,23.95
2018-09-27T16:41:42.591Z,23.89
2018-09-27T16:44:09.928Z,23.82
2018-09-27T16:46:37.288Z,23.73
2018-09-27T16:49:04.956Z,23.69
2018-09-27T16:51:32.165Z,23.60
2018-09-27T16:53:59.461Z,23.50
2018-09-27T16:56:27.004Z,23.41
2018-09-27T16:58:54.342Z,23.32
2018-09-27T17:01:22.017Z,23.18
2018-09-27T17:03:49.371Z,23.09
2018-09-27T17:06:17.194Z,23.02
2018-09-27T17:08:44.891Z,22.91
2018-09-27T17:11:12.904Z,22.79
2018-09-27T17:13:40.220Z,22.63
2018-09-27T17:16:07.517Z,22.43
2018-09-27T17:18:34.820Z,22.34
2018-09-27T17:21:02.219Z,22.35
2018-09-27T17:23:29.474Z,22.32
2018-09-27T17:25:56.700Z,22.19
2018-09-27T17:28:23.893Z,22.00
2018-09-27T17:30:51.113Z,21.92
2018-09-27T17:33:18.427Z,21.82
2018-09-27T17:35:45.770Z,21.65
2018-09-27T17:38:12.864Z,21.53
2018-09-27T17:40:40.093Z,21.31
2018-09-27T17:43:07.308Z,21.17
2018-09-27T17:45:34.843Z,19.58
2018-09-27T17:48:02.811Z,21.04
2018-09-27T17:50:30.462Z,20.92
2018-09-27T17:52:57.869Z,20.78
2018-09-27T17:55:25.143Z,20.67
2018-09-27T17:57:52.331Z,20.58
2018-09-27T18:00:19.749Z,20.49
2018-09-27T18:02:47.262Z,20.38
2018-09-27T18:05:19.162Z,20.24
2018-09-27T18:07:48.874Z,20.15
2018-09-27T18:13:04.345Z,19.92
2018-09-27T18:15:38.073Z,19.85
2018-09-27T18:18:11.394Z,19.70
2018-09-27T18:20:44.711Z,19.51
2018-09-27T18:23:23.136Z,19.43
2018-09-27T18:25:57.840Z,19.37
2018-09-27T18:28:35.818Z,19.17
2018-09-27T18:31:09.109Z,19.13
2018-09-27T18:33:42.503Z,19.06
2018-09-27T18:36:15.879Z,19.01
2018-09-27T18:38:49.572Z,18.82
2018-09-27T18:41:22.895Z,18.73
2018-09-27T18:43:55.976Z,18.68
2018-09-27T18:46:29.324Z,18.60
2018-09-27T18:49:02.952Z,18.45
2018-09-27T18:51:56.513Z,18.42
2018-09-27T18:54:25.006Z,18.41
2018-09-27T18:56:52.362Z,18.38
2018-09-27T18:59:25.582Z,18.30
2018-09-27T19:01:58.927Z,18.23
2018-09-27T19:04:32.306Z,18.17
2018-09-27T19:07:05.859Z,18.16
2018-09-27T19:09:39.320Z,18.14
2018-09-27T19:12:12.722Z,18.02
2018-09-27T19:14:45.947Z,17.94
2018-09-27T19:17:19.293Z,17.91
2018-09-27T19:19:46.510Z,17.77
2018-09-27T19:22:13.776Z,17.74
2018-09-27T19:24:40.950Z,17.45
2018-09-27T19:27:08.748Z,17.43
2018-09-27T19:29:36.044Z,17.48
2018-09-27T19:32:03.362Z,17.50
2018-09-27T19:34:30.666Z,17.50
2018-09-27T19:36:58.409Z,17.59
2018-09-27T19:39:26.253Z,17.48
2018-09-27T19:41:53.522Z,17.39
2018-09-27T19:44:20.766Z,17.23
2018-09-27T19:46:48.170Z,17.16
2018-09-27T19:49:15.468Z,17.14
2018-09-27T19:51:42.785Z,17.13
2018-09-27T19:54:10.055Z,17.08
2018-09-27T19:56:37.288Z,16.93
2018-09-27T19:59:04.835Z,16.91
2018-09-27T20:01:32.137Z,16.75
2018-09-27T20:03:59.587Z,16.67
2018-09-27T20:06:26.889Z,16.64
2018-09-27T20:08:54.148Z,16.61
2018-09-27T20:11:21.462Z,16.59
2018-09-27T20:13:48.711Z,16.50
2018-09-27T20:16:16.120Z,16.51
2018-09-27T20:18:43.274Z,16.45
2018-09-27T20:21:10.449Z,16.43
2018-09-27T20:23:37.665Z,16.48
2018-09-27T20:26:04.935Z,16.37
2018-09-27T20:28:32.185Z,16.26
2018-09-27T20:30:59.378Z,16.18
2018-09-27T20:33:26.610Z,16.07
2018-09-27T20:35:53.898Z,15.97
2018-09-27T20:38:21.093Z,15.88
2018-09-27T20:40:48.423Z,15.83
2018-09-27T20:43:15.649Z,15.83
2018-09-27T20:45:42.846Z,15.80
2018-09-27T20:48:10.079Z,15.80
2018-09-27T20:50:37.966Z,15.83
2018-09-27T20:53:05.494Z,15.84
2018-09-27T20:55:32.722Z,15.80
2018-09-27T20:57:59.918Z,15.71
2018-09-27T21:00:27.109Z,15.63
2018-09-27T21:02:54.407Z,15.50
2018-09-27T21:05:21.648Z,15.55
2018-09-27T21:07:48.867Z,15.53
2018-09-27T21:10:16.170Z,15.49
2018-09-27T21:12:43.495Z,15.49
2018-09-27T21:15:10.739Z,15.45
2018-09-27T21:17:37.905Z,15.48
2018-09-27T21:20:05.171Z,15.53
2018-09-27T21:22:32.381Z,15.47
2018-09-27T21:24:59.583Z,15.42
2018-09-27T21:27:26.838Z,15.37
2018-09-27T21:29:54.156Z,15.29
2018-09-27T21:32:21.454Z,15.19
2018-09-27T21:34:48.642Z,15.10
2018-09-27T21:37:15.849Z,15.00
2018-09-27T21:39:43.043Z,15.00
2018-09-27T21:42:10.236Z,14.98
2018-09-27T21:44:37.445Z,14.99
2018-09-27T21:47:04.849Z,15.04
2018-09-27T21:49:32.107Z,14.69
2018-09-27T21:51:59.275Z,14.62
2018-09-27T21:54:26.542Z,14.65
2018-09-27T21:56:53.710Z,14.70
2018-09-27T21:59:21.046Z,14.76
2018-09-27T22:01:48.363Z,14.86
2018-09-27T22:04:15.639Z,14.84
2018-09-27T22:06:43.129Z,14.70
2018-09-27T22:09:10.585Z,14.58
2018-09-27T22:11:38.190Z,14.48
2018-09-27T22:14:06.187Z,14.20
2018-09-27T22:16:33.614Z,14.43
2018-09-27T22:19:00.802Z,14.44
2018-09-27T22:21:27.986Z,14.43
2018-09-27T22:23:55.207Z,14.30
2018-09-27T22:26:22.750Z,14.27
2018-09-27T22:28:50.035Z,14.26
2018-09-27T22:31:17.296Z,12.10
2018-09-27T22:33:44.510Z,14.15
2018-09-27T22:36:11.866Z,14.11
2018-09-27T22:38:39.352Z,14.03
2018-09-27T22:41:06.574Z,14.01
2018-09-27T22:43:33.745Z,13.95
2018-09-27T22:46:00.996Z,14.10
2018-09-27T22:48:28.242Z,13.97
2018-09-27T22:50:55.484Z,13.95
2018-09-27T22:53:22.755Z,13.86
2018-09-27T22:55:49.985Z,13.86
2018-09-27T22:58:17.121Z,13.81
2018-09-27T23:00:44.435Z,13.78
2018-09-27T23:03:11.630Z,13.83
2018-09-27T23:05:38.888Z,13.86
2018-09-27T23:08:06.147Z,13.77
2018-09-27T23:10:33.393Z,13.69
2018-09-27T23:13:00.644Z,13.66
2018-09-27T23:15:27.904Z,13.64
2018-09-27T23:17:55.069Z,13.61
2018-09-27T23:20:22.304Z,13.59
2018-09-27T23:22:49.541Z,13.54
2018-09-27T23:25:16.913Z,13.48
2018-09-27T23:27:44.185Z,13.53
2018-09-27T23:30:11.397Z,13.55
2018-09-27T23:32:38.755Z,13.53
2018-09-27T23:35:05.962Z,13.48
2018-09-27T23:37:33.223Z,13.22
2018-09-27T23:40:00.425Z,13.20
2018-09-27T23:42:27.675Z,13.12
2018-09-27T23:44:54.843Z,13.22
2018-09-27T23:47:22.096Z,12.92
2018-09-27T23:49:49.430Z,13.28
2018-09-27T23:52:16.698Z,13.25
2018-09-27T23:54:43.941Z,13.14
2018-09-27T23:57:11.171Z,13.20
2018-09-27T23:59:38.728Z,13.16
